Terminal Aerodrome Forecast
Issued by NWS Twin Cities, MN

Home | Current Version | Previous Version | Text Only | Print | Product List | Glossary Off
Versions: 1 2 3 4 5 6 7 8 9 10 11 12 13 14 15 16 17 18 19 20 21 22 23 24 25 26 27 28

000
FTUS43 KMPX 141738
TAFMSP
TAF
KMSP 141738Z 1418/1524 05005KT P6SM OVC022
     FM142100 01006KT P6SM BKN040
     FM150300 03005KT P6SM SKC
     FM150800 05003KT 4SM BR SCT006
     FM151300 07006KT P6SM SCT020=

USA.gov is the U.S. government's official web portal to all federal, state and local government web resources and services.